Estación Meteorológica Peña el Pijo (Robertgarden) [ 02/02/23 21:07:26 CET ]

Fecha Hora Presion(HPa) Temp (°C) Humedad % Rocio (°C) Viento ( m/s) Direccion Lluvia 1Hora(mm) Lluvia 24H(mm) LLuvia Total(mm)
2010-Aug-19 01:01:17 1010.800 15.1 89 13.3       1.03 150.22
2010-Aug-19 02:01:19 1010.800 14.8 89 13.0       1.03 150.22
2010-Aug-19 03:01:21 1010.100 14.4 90 12.8       1.03 150.22
2010-Aug-19 04:01:18 1009.900 13.9 91 12.5       1.03 150.22
2010-Aug-19 05:01:18 1009.100 13.9 91 12.5       1.03 150.22
2010-Aug-19 06:01:16 1009.000 13.8 92 12.5       1.03 150.22
2010-Aug-19 07:01:16 1009.400 14.1 93 13.0       1.03 150.22
2010-Aug-19 08:01:16 1010.200 14.4 93 13.3       1.03 150.22
2010-Aug-19 09:01:16 1010.500 14.9 94 13.9       1.03 150.22
2010-Aug-19 10:01:16 1010.500 17.2 93 16.1       1.03 150.22
2010-Aug-19 11:01:12 1010.400 22.4 73 17.3       1.03 150.22
2010-Aug-19 12:01:15 1010.600 25.9 58 17.0       1.03 150.22
2010-Aug-19 13:01:13 1010.100 26.4 55 16.6       1.03 150.22
2010-Aug-19 14:01:13 1010.500 24.5 59 16.0       1.03 150.22
2010-Aug-19 15:01:13 1010.500 24.7 61 16.7       1.03 150.22
2010-Aug-19 16:01:18 1010.900 23.5 65 16.5 0.2 WNW   1.03 150.22
2010-Aug-19 17:01:39 1010.900 22.6 64 15.4       1.03 150.22
2010-Aug-19 18:01:39 1011.400 19.6 79 15.9     1.03 2.07 151.25
2010-Aug-19 19:01:42 1011.800 19.5 84 16.7     1.03 3.10 152.29
2010-Aug-19 20:01:35 1011.900 19.4 86 17.0       3.10 152.29
2010-Aug-19 21:01:16 1012.400 18.1 89 16.3       3.10 152.29
2010-Aug-19 22:01:14 1012.900 16.9 91 15.5       2.07 152.29
2010-Aug-19 23:01:13 1013.800 16.2 92 14.9       2.07 152.29

Temperatura Máxima:26°    Temperatura Mínima:13°
Presión Máxima:1013.800 Hpa    Presión Mínima:1009.000 Hpa


Volver